Longstreet, LA (71050)

12:40 AM CDT on April 18, 2015 (GMT -0500)
MesoWest | | Change Station
CLOSE
Current Station
Personal Weather Station
Location: Longstreet, LA
Elevation: 335 ft
Nearby Weather Stations

Elev 335 ft 32.15 °N, 93.93 °W | Updated 1 hour ago

Mostly Cloudy
Mostly Cloudy
67 °F
Feels Like 67 °F
N
Wind Variable Wind from North
Gusts 0.0 mph

Today
High -- | Low -- °F
--% Chance of Precip.
Yesterday
High -- | Low -- °F
Precip. -- in
6:43 AM 7:47 PM
Waning Crescent, 0% visible
Pressure 29.91 in
Visibility 10.0 miles
Clouds Overcast 17000 ft
Dew Point Not available.
Humidity Not available.
Rainfall in
Snow Depth Not available.
UV 0 out of 12
Pollen 9.00 out of 12
Air Quality Not available.
Flu Activity Local Activity
METAR KSHV 180456Z 09004KT 10SM OVC170 21/19 A2992 RMK AO2 SLP127 T02060189

More Conditions Fewer Conditions

Pressure 29.91 in
Visibility 10.0 miles
Clouds Overcast 17000 ft
Dew Point Not available.
Humidity Not available.
Rainfall in
Snow Depth Not available.
UV 0 out of 12
Pollen 9.00 out of 12
Air Quality Not available.
Flu Activity Local Activity
METAR KSHV 180456Z 09004KT 10SM OVC170 21/19 A2992 RMK AO2 SLP127 T02060189

More Conditions Fewer Conditions

Nowcast | as of 10:53 PM CDT on April 17, 2015

Some light rain will continue moving into the southern half of northeast Texas and over the southern Toledo Bend Reservoir into portions of west central Louisiana over the next couple hours. Rainfall amounts will be light through 1 am. However...towards the predawn hours...scattered showers and thunderstorms will be possible across most of northeast Texas with heavier downpours likely accompanying these storms.

×

10-Day Weather Forecast

Almanac

Astronomy

Apr. 18, 2015 Rise Set
Actual Time
Civil Twilight
Nautical Twilight
Astronomical Twilight
Moon
Length of Visible Light
Length of Day
Tomorrow will be .
, % of the Moon is Illuminated

Today's Extremes

State Highs State Lows

Community

WunderPhotos

Upload Photos

1,814,340 photos uploaded!

WunderBlogs® & News

Nearby

Air Quality

  Air Quality AQ Index Pollutant
Not available.

Snow Depth

Station Depth Elevation

Earthquake Activity

City Distance Mag. Time & Date
Minimum magnitude displayed is 2.5.

Coastal Water Temperatures

Place Temperature

Stations

Nearby Weather Stations

Station Location Temp. Windchill Dew Point Humidity Wind Precip. Elev Updated Type